createdAt,value
2022-10-18T00:01:19.944Z,18.60
2022-10-18T00:04:15.135Z,22.70
2022-10-18T00:07:15.454Z,19.70
2022-10-18T00:10:01.441Z,19.00
2022-10-18T00:15:25.729Z,20.50
2022-10-18T00:18:14.069Z,19.00
2022-10-18T00:21:10.306Z,18.80
2022-10-18T00:23:55.141Z,22.00
2022-10-18T00:26:37.409Z,21.60
2022-10-18T00:29:22.948Z,20.80
2022-10-18T00:33:47.844Z,30.00
2022-10-18T00:38:17.873Z,19.80
2022-10-18T00:44:08.951Z,21.00
2022-10-18T00:47:14.998Z,20.50
2022-10-18T00:50:37.353Z,24.70
2022-10-18T00:53:26.239Z,20.70
2022-10-18T00:56:14.134Z,21.10
2022-10-18T00:59:13.231Z,19.90
2022-10-18T01:01:58.660Z,22.00
2022-10-18T01:05:09.105Z,20.50
2022-10-18T01:08:16.377Z,18.70
2022-10-18T01:11:33.563Z,18.70
2022-10-18T01:14:45.489Z,23.30
2022-10-18T01:17:50.917Z,19.30
2022-10-18T01:20:47.660Z,20.90
2022-10-18T01:24:21.747Z,21.60
2022-10-18T01:27:14.392Z,19.30
2022-10-18T01:30:34.538Z,17.40
2022-10-18T01:33:43.411Z,18.90
2022-10-18T01:36:57.250Z,15.80
2022-10-18T01:42:49.780Z,26.50
2022-10-18T01:45:32.219Z,19.10
2022-10-18T01:48:19.254Z,21.70
2022-10-18T01:51:58.794Z,21.00
2022-10-18T01:54:44.273Z,22.20
2022-10-18T01:57:41.111Z,19.60
2022-10-18T02:00:52.196Z,20.30
2022-10-18T02:03:41.928Z,22.70
2022-10-18T02:06:39.386Z,31.50
2022-10-18T02:13:43.187Z,30.20
2022-10-18T02:16:32.073Z,32.50
2022-10-18T02:22:43.158Z,37.60
2022-10-18T02:25:39.750Z,34.90
2022-10-18T02:28:33.827Z,33.70
2022-10-18T02:31:48.708Z,32.40
2022-10-18T02:34:32.221Z,29.50
2022-10-18T02:38:01.144Z,24.70
2022-10-18T02:40:40.992Z,24.90
2022-10-18T02:43:42.259Z,23.40
2022-10-18T02:46:39.363Z,23.30
2022-10-18T02:49:14.559Z,25.10
2022-10-18T02:51:47.928Z,24.90
2022-10-18T02:54:28.922Z,25.10
2022-10-18T02:57:07.135Z,25.50
2022-10-18T02:59:56.630Z,24.80
2022-10-18T03:02:43.836Z,22.60
2022-10-18T03:05:17.242Z,21.10
2022-10-18T03:08:15.572Z,21.80
2022-10-18T03:10:51.375Z,24.60
2022-10-18T03:13:38.251Z,26.00
2022-10-18T03:16:39.369Z,30.00
2022-10-18T03:19:41.823Z,30.90
2022-10-18T03:22:35.684Z,25.70
2022-10-18T03:25:24.098Z,30.40
2022-10-18T03:28:55.193Z,28.60
2022-10-18T03:34:27.679Z,29.20
2022-10-18T03:37:12.203Z,30.50
2022-10-18T03:40:01.432Z,33.10
2022-10-18T03:43:05.646Z,28.70
2022-10-18T03:45:42.123Z,28.70
2022-10-18T03:48:43.673Z,29.60
2022-10-18T03:51:28.044Z,27.80
2022-10-18T03:54:12.811Z,29.60
2022-10-18T03:57:00.660Z,26.40
2022-10-18T04:00:07.877Z,29.70
2022-10-18T04:02:53.313Z,30.30
2022-10-18T04:08:08.705Z,33.20
2022-10-18T04:10:53.977Z,33.70
2022-10-18T04:14:16.836Z,32.10
2022-10-18T04:17:00.473Z,37.60
2022-10-18T04:19:32.658Z,37.70
2022-10-18T04:22:14.924Z,33.80
2022-10-18T04:25:10.405Z,38.60
2022-10-18T04:28:09.907Z,35.20
2022-10-18T04:30:55.072Z,39.50
2022-10-18T04:33:24.361Z,39.80
2022-10-18T04:36:26.733Z,37.20
2022-10-18T04:39:40.268Z,36.40
2022-10-18T04:42:19.750Z,36.30
2022-10-18T04:44:53.596Z,33.80
2022-10-18T04:47:27.137Z,36.00
2022-10-18T04:50:15.124Z,33.00
2022-10-18T04:52:52.941Z,34.60
2022-10-18T04:55:40.490Z,34.00
2022-10-18T04:58:15.833Z,35.70
2022-10-18T05:00:53.917Z,35.60
2022-10-18T05:03:56.487Z,35.50
2022-10-18T05:06:45.010Z,38.00
2022-10-18T05:09:40.824Z,33.90
2022-10-18T05:12:15.700Z,31.80
2022-10-18T05:15:12.564Z,35.20
2022-10-18T05:17:51.781Z,33.20
2022-10-18T05:21:13.797Z,32.00
2022-10-18T05:24:04.101Z,32.80
2022-10-18T05:26:44.991Z,31.30
2022-10-18T05:29:50.998Z,32.20
2022-10-18T05:32:31.929Z,35.90
2022-10-18T05:35:09.743Z,37.10
2022-10-18T05:37:59.664Z,36.10
2022-10-18T05:40:53.495Z,38.30
2022-10-18T05:43:30.931Z,32.20
2022-10-18T05:46:23.920Z,31.60
2022-10-18T05:49:25.211Z,29.40
2022-10-18T05:52:04.038Z,31.60
2022-10-18T05:54:57.343Z,38.30
2022-10-18T05:58:09.019Z,34.40
2022-10-18T06:01:18.333Z,34.70
2022-10-18T06:04:06.738Z,42.60
2022-10-18T06:06:52.481Z,39.90
2022-10-18T06:09:28.877Z,39.80
2022-10-18T06:12:18.782Z,41.20
2022-10-18T06:15:02.570Z,41.10
2022-10-18T06:17:54.592Z,38.20
2022-10-18T06:21:05.262Z,32.70
2022-10-18T06:24:11.212Z,32.60
2022-10-18T06:29:42.799Z,32.60
2022-10-18T06:32:24.895Z,31.10
2022-10-18T06:35:11.636Z,29.30
2022-10-18T06:39:42.857Z,32.90
2022-10-18T06:41:17.477Z,29.50
2022-10-18T06:44:09.949Z,25.90
2022-10-18T06:46:49.931Z,25.20
2022-10-18T06:49:20.512Z,26.40
2022-10-18T06:51:59.887Z,31.80
2022-10-18T06:54:34.877Z,27.20
2022-10-18T06:57:06.534Z,27.30
2022-10-18T06:59:38.484Z,26.90
2022-10-18T07:02:07.590Z,25.60
2022-10-18T07:04:36.985Z,31.40
2022-10-18T07:07:07.186Z,24.50
2022-10-18T07:09:52.854Z,25.80
2022-10-18T07:12:45.374Z,27.20
2022-10-18T07:15:37.733Z,28.70
2022-10-18T07:18:26.482Z,29.40
2022-10-18T07:25:35.936Z,35.40
2022-10-18T07:28:36.435Z,39.20
2022-10-18T07:31:31.858Z,27.20
2022-10-18T07:34:30.490Z,26.00
2022-10-18T07:37:56.892Z,25.50
2022-10-18T07:40:31.650Z,19.40
2022-10-18T07:43:48.299Z,18.10
2022-10-18T07:47:08.552Z,25.70
2022-10-18T07:50:22.782Z,23.20
2022-10-18T07:54:02.852Z,32.40
2022-10-18T08:00:25.019Z,22.20
2022-10-18T08:03:09.712Z,31.50
2022-10-18T08:06:24.304Z,25.00
2022-10-18T08:09:25.068Z,27.40
2022-10-18T08:12:22.367Z,21.60
2022-10-18T08:15:15.180Z,23.50
2022-10-18T08:18:48.162Z,22.50
2022-10-18T08:21:32.698Z,19.50
2022-10-18T08:27:45.062Z,19.70
2022-10-18T08:30:42.550Z,30.50
2022-10-18T08:36:58.591Z,25.40
2022-10-18T08:40:20.207Z,21.00
2022-10-18T08:47:40.279Z,33.00
2022-10-18T08:54:13.036Z,28.50
2022-10-18T08:57:22.252Z,23.00
2022-10-18T09:04:00.797Z,23.60
2022-10-18T09:07:59.634Z,26.40
2022-10-18T09:11:41.046Z,23.50
2022-10-18T09:15:09.795Z,26.50
2022-10-18T09:21:32.290Z,24.20
2022-10-18T09:24:23.731Z,24.50
2022-10-18T09:27:17.604Z,24.20
2022-10-18T09:30:20.672Z,22.60
2022-10-18T09:36:01.449Z,23.80
2022-10-18T09:38:50.940Z,28.10
2022-10-18T09:41:53.616Z,25.90
2022-10-18T09:44:33.963Z,25.50
2022-10-18T09:50:17.397Z,25.20
2022-10-18T09:53:26.717Z,23.60
2022-10-18T09:56:45.226Z,24.40
2022-10-18T09:59:52.993Z,26.60
2022-10-18T10:02:27.505Z,55.60
2022-10-18T10:05:26.139Z,27.20
2022-10-18T10:08:20.668Z,29.10
2022-10-18T10:11:36.913Z,30.50
2022-10-18T10:14:30.588Z,25.80
2022-10-18T10:17:08.665Z,26.90
2022-10-18T10:20:04.931Z,28.50
2022-10-18T10:22:48.876Z,30.80
2022-10-18T10:25:41.329Z,26.70
2022-10-18T10:28:18.970Z,27.00
2022-10-18T10:31:41.542Z,47.40
2022-10-18T10:34:25.391Z,26.40
2022-10-18T10:37:43.196Z,32.50
2022-10-18T10:40:41.013Z,26.10
2022-10-18T10:43:33.134Z,25.60
2022-10-18T10:46:28.718Z,24.30
2022-10-18T10:49:34.938Z,28.80
2022-10-18T10:52:25.893Z,32.50
2022-10-18T10:55:23.629Z,26.90
2022-10-18T10:58:04.349Z,26.80
2022-10-18T11:00:45.694Z,27.20
2022-10-18T11:03:29.596Z,24.70
2022-10-18T11:06:02.439Z,26.00
2022-10-18T11:08:43.477Z,26.70
2022-10-18T11:11:33.541Z,28.10
2022-10-18T11:14:27.433Z,43.10
2022-10-18T11:17:33.342Z,27.80
2022-10-18T11:20:07.478Z,28.60
2022-10-18T11:23:05.478Z,27.30
2022-10-18T11:26:13.108Z,33.90
2022-10-18T11:29:07.655Z,28.70
2022-10-18T11:32:24.906Z,25.30
2022-10-18T11:35:39.551Z,33.60
2022-10-18T11:38:49.709Z,26.40
2022-10-18T11:41:30.378Z,27.30
2022-10-18T11:44:32.832Z,28.60
2022-10-18T11:47:52.225Z,26.20
2022-10-18T11:50:52.812Z,24.90
2022-10-18T11:54:01.720Z,25.40
2022-10-18T11:57:02.785Z,26.50
2022-10-18T12:00:42.138Z,38.70
2022-10-18T12:03:42.763Z,28.40
2022-10-18T12:06:32.522Z,24.00
2022-10-18T12:11:04.987Z,26.00
2022-10-18T12:13:47.327Z,25.50
2022-10-18T12:17:19.050Z,24.80
2022-10-18T12:19:56.023Z,25.90
2022-10-18T12:22:55.464Z,27.00
2022-10-18T12:25:46.509Z,25.60
2022-10-18T12:28:53.556Z,25.60
2022-10-18T12:32:25.746Z,33.60
2022-10-18T12:35:23.092Z,25.00
2022-10-18T12:38:23.235Z,25.40
2022-10-18T12:41:06.283Z,28.40
2022-10-18T12:44:08.964Z,25.20
2022-10-18T12:47:01.713Z,24.40
2022-10-18T12:49:49.052Z,26.20
2022-10-18T12:52:36.081Z,26.70
2022-10-18T12:55:55.500Z,26.10
2022-10-18T12:58:59.017Z,27.80
2022-10-18T13:02:25.133Z,26.20
2022-10-18T13:05:54.873Z,28.10
2022-10-18T13:08:56.426Z,28.20
2022-10-18T13:12:18.719Z,27.50
2022-10-18T13:15:41.478Z,29.60
2022-10-18T13:18:59.360Z,34.90
2022-10-18T13:22:04.269Z,29.20
2022-10-18T13:25:12.195Z,28.60
2022-10-18T13:28:10.027Z,34.40
2022-10-18T13:31:39.954Z,29.80
2022-10-18T13:34:41.333Z,28.10
2022-10-18T13:37:29.868Z,29.50
2022-10-18T13:47:56.126Z,30.90
2022-10-18T13:50:43.336Z,35.00
2022-10-18T13:53:51.983Z,36.50
2022-10-18T13:57:05.470Z,35.40
2022-10-18T14:00:21.596Z,31.20
2022-10-18T14:12:27.637Z,8.30
2022-10-18T14:15:24.139Z,7.80
2022-10-18T14:18:16.022Z,7.60
2022-10-18T14:21:58.148Z,6.70
2022-10-18T14:24:08.408Z,8.70
2022-10-18T14:29:34.237Z,8.00
2022-10-18T14:32:30.402Z,7.80
2022-10-18T14:35:32.972Z,10.60
2022-10-18T14:38:14.587Z,10.10
2022-10-18T14:41:27.641Z,11.30
2022-10-18T14:44:53.027Z,11.90
2022-10-18T14:47:30.516Z,11.50
2022-10-18T14:50:04.345Z,11.30
2022-10-18T14:52:35.850Z,9.20
2022-10-18T14:55:13.362Z,9.80
2022-10-18T14:57:46.371Z,11.40
2022-10-18T15:00:35.241Z,10.50
2022-10-18T15:03:09.616Z,8.60
2022-10-18T15:06:00.051Z,10.20
2022-10-18T15:08:44.494Z,11.00
2022-10-18T15:11:16.451Z,10.20
2022-10-18T15:13:58.674Z,21.80
2022-10-18T15:16:37.290Z,9.70
2022-10-18T15:19:36.428Z,8.00
2022-10-18T15:25:05.786Z,8.80
2022-10-18T15:30:34.206Z,10.80
2022-10-18T15:33:10.030Z,8.90
2022-10-18T15:35:43.327Z,8.10
2022-10-18T15:38:28.085Z,8.60
2022-10-18T15:41:04.335Z,6.20
2022-10-18T15:43:39.039Z,7.10
2022-10-18T15:46:32.441Z,7.00
2022-10-18T15:49:25.218Z,8.70
2022-10-18T15:52:10.994Z,7.80
2022-10-18T15:54:43.301Z,8.60
2022-10-18T15:57:13.045Z,8.40
2022-10-18T15:59:58.212Z,7.10
2022-10-18T16:02:31.319Z,6.00
2022-10-18T16:05:02.094Z,7.80
2022-10-18T16:07:31.395Z,7.40
2022-10-18T16:10:00.865Z,6.90
2022-10-18T16:12:31.682Z,8.10
2022-10-18T16:15:00.670Z,9.10
2022-10-18T16:17:30.105Z,7.80
2022-10-18T16:19:59.291Z,7.60
2022-10-18T16:22:29.540Z,7.20
2022-10-18T16:25:02.701Z,11.00
2022-10-18T16:27:31.981Z,7.10
2022-10-18T16:30:20.330Z,8.70
2022-10-18T16:33:00.283Z,9.00
2022-10-18T16:35:31.896Z,9.50
2022-10-18T16:38:00.753Z,8.60
2022-10-18T16:40:29.678Z,9.30
2022-10-18T16:42:58.555Z,8.90
2022-10-18T16:45:27.512Z,12.50
2022-10-18T16:47:56.440Z,15.50
2022-10-18T16:50:27.025Z,15.60
2022-10-18T16:52:55.948Z,16.00
2022-10-18T16:55:25.174Z,18.40
2022-10-18T16:57:56.831Z,17.20
2022-10-18T17:00:31.479Z,18.60
2022-10-18T17:03:07.262Z,15.10
2022-10-18T17:05:38.198Z,16.50
2022-10-18T17:08:19.790Z,15.20
2022-10-18T17:10:53.387Z,15.10
2022-10-18T17:13:26.038Z,14.50
2022-10-18T17:16:00.383Z,22.00
2022-10-18T17:18:42.894Z,18.40
2022-10-18T17:21:19.312Z,16.40
2022-10-18T17:23:54.136Z,13.70
2022-10-18T17:26:28.941Z,13.10
2022-10-18T17:29:08.437Z,11.50
2022-10-18T17:31:48.176Z,12.80
2022-10-18T17:34:21.465Z,14.30
2022-10-18T17:36:53.023Z,12.90
2022-10-18T17:39:42.034Z,12.30
2022-10-18T17:42:15.545Z,12.80
2022-10-18T17:44:47.053Z,11.90
2022-10-18T17:47:21.800Z,13.20
2022-10-18T17:49:53.687Z,12.90
2022-10-18T17:52:27.326Z,11.80
2022-10-18T17:54:57.928Z,14.40
2022-10-18T17:57:33.679Z,13.90
2022-10-18T18:00:10.756Z,14.00
2022-10-18T18:02:47.495Z,28.60
2022-10-18T18:05:23.166Z,15.60
2022-10-18T18:07:52.837Z,15.40
2022-10-18T18:10:33.060Z,15.30
2022-10-18T18:13:09.978Z,15.40
2022-10-18T18:15:41.735Z,18.50
2022-10-18T18:18:13.178Z,19.60
2022-10-18T18:20:55.361Z,18.00
2022-10-18T18:23:30.289Z,18.60
2022-10-18T18:26:01.652Z,19.10
2022-10-18T18:28:36.104Z,18.80
2022-10-18T18:31:16.028Z,20.10
2022-10-18T18:33:45.412Z,21.40
2022-10-18T18:36:16.680Z,20.90
2022-10-18T18:39:01.435Z,25.60
2022-10-18T18:41:34.710Z,21.60
2022-10-18T18:44:06.739Z,21.00
2022-10-18T18:46:39.374Z,21.70
2022-10-18T18:49:14.010Z,22.10
2022-10-18T18:51:47.195Z,20.60
2022-10-18T18:54:19.060Z,22.80
2022-10-18T18:56:48.308Z,23.00
2022-10-18T18:59:32.438Z,28.20
2022-10-18T19:02:12.281Z,21.80
2022-10-18T19:04:45.597Z,21.20
2022-10-18T19:07:22.702Z,23.00
2022-10-18T19:09:54.449Z,21.40
2022-10-18T19:13:28.439Z,21.90
2022-10-18T19:16:24.159Z,20.90
2022-10-18T19:19:16.739Z,19.90
2022-10-18T19:21:58.380Z,19.20
2022-10-18T19:24:32.766Z,16.80
2022-10-18T19:27:14.090Z,17.60
2022-10-18T19:29:46.296Z,17.40
2022-10-18T19:32:20.467Z,12.60
2022-10-18T19:34:52.205Z,12.20
2022-10-18T19:37:21.532Z,11.50
2022-10-18T19:39:51.961Z,10.30
2022-10-18T19:42:24.245Z,10.50
2022-10-18T19:47:58.548Z,11.50
2022-10-18T19:50:51.103Z,8.60
2022-10-18T19:53:28.241Z,10.20
2022-10-18T19:56:16.956Z,10.80
2022-10-18T19:58:52.743Z,11.10
2022-10-18T20:01:28.180Z,12.40
2022-10-18T20:04:12.542Z,13.30
2022-10-18T20:06:57.111Z,15.80
2022-10-18T20:13:36.750Z,16.20
2022-10-18T20:16:31.033Z,19.40
2022-10-18T20:23:34.948Z,19.80
2022-10-18T20:26:39.480Z,17.90
2022-10-18T20:32:50.884Z,19.10
2022-10-18T20:35:50.087Z,18.60
2022-10-18T20:38:53.600Z,17.20
2022-10-18T20:42:00.332Z,18.60
2022-10-18T20:44:49.397Z,19.60
2022-10-18T20:48:44.217Z,21.20
2022-10-18T20:53:04.957Z,25.90
2022-10-18T20:57:16.829Z,20.30
2022-10-18T21:00:37.600Z,18.70
2022-10-18T21:30:26.506Z,17.30
2022-10-18T21:34:25.722Z,20.70
2022-10-18T22:37:17.803Z,17.50
2022-10-18T22:39:56.558Z,16.40
2022-10-18T22:42:37.325Z,17.50
2022-10-18T22:45:24.562Z,15.60
2022-10-18T22:48:24.051Z,18.40
2022-10-18T22:51:03.972Z,14.80
2022-10-18T22:53:40.593Z,15.30
2022-10-18T22:56:28.673Z,16.90
2022-10-18T22:59:02.463Z,17.80
2022-10-18T23:01:52.353Z,13.50
2022-10-18T23:04:39.250Z,18.30
2022-10-18T23:07:30.967Z,16.50
2022-10-18T23:10:16.446Z,16.00
2022-10-18T23:13:03.280Z,16.40
2022-10-18T23:22:11.401Z,20.20
2022-10-18T23:25:25.399Z,21.10
2022-10-18T23:28:08.997Z,17.40
2022-10-18T23:30:47.993Z,16.50
2022-10-18T23:33:34.053Z,16.20
2022-10-18T23:36:05.156Z,19.00
2022-10-18T23:38:42.477Z,21.40
2022-10-18T23:41:18.976Z,17.70
2022-10-18T23:43:57.594Z,19.70
2022-10-18T23:46:42.189Z,16.70
2022-10-18T23:49:14.626Z,14.70
2022-10-18T23:51:48.252Z,12.90
2022-10-18T23:54:19.893Z,15.40
2022-10-18T23:56:53.743Z,15.60
2022-10-18T23:59:35.926Z,14.30
